Time;durP1;ratioP1;P1;durP2;ratioP2;P2;SDS_P1;SDS_P2;PMS_P1;PMS_P2;Temp;Humidity;BMP_temperature;BMP_pressure;BME280_temperature;BME280_humidity;BME280_pressure;Samples;Min_cycle;Max_cycle;Signal;HPM_P1;HPM_P2
2021/06/28 00:02:10;;;;;;;;;;;;;;;26.95;62.64;100739.75;1715064;82;20666;-60
2021/06/28 00:04:36;;;;;;;;;;;;;;;26.92;62.61;100734.31;1729926;82;20203;-61
2021/06/28 00:07:03;;;;;;;;;;;;;;;26.91;62.58;100734.67;1715681;82;21189;-61
2021/06/28 00:09:29;;;;;;;;;;;;;;;26.86;62.59;100739.97;1718785;82;20400;-61
2021/06/28 00:11:54;;;;;;;;;;;;;;;26.84;62.59;100743.66;1725239;82;20192;-60
2021/06/28 00:14:20;;;;;;;;;;;;;;;26.80;62.62;100741.38;1713254;82;21977;-60
2021/06/28 00:16:46;;;;;;;;;;;;;;;26.77;62.64;100737.92;1718844;82;20239;-60
2021/06/28 00:19:12;;;;;;;;;;;;;;;26.75;62.65;100742.45;1722667;82;21350;-61
2021/06/28 00:21:39;;;;;;;;;;;;;;;26.71;62.66;100742.95;1719519;82;20278;-60
2021/06/28 00:24:07;;;;;;;;;;;;;;;26.69;62.70;100741.09;1723601;82;20182;-60
2021/06/28 00:26:33;;;;;;;;;;;;;;;26.67;62.73;100739.84;1707336;82;20132;-60
2021/06/28 00:28:59;;;;;;;;;;;;;;;26.64;62.75;100729.41;1714830;82;20143;-60
2021/06/28 00:31:25;;;;;;;;;;;;;;;26.61;62.78;100734.30;1715505;82;21217;-62
2021/06/28 00:33:51;;;;;;;;;;;;;;;26.57;62.84;100727.81;1723585;82;20262;-59
2021/06/28 00:36:16;;;;;;;;;;;;;;;26.55;62.89;100730.17;1708822;82;20195;-60
2021/06/28 00:38:42;;;;;;;;;;;;;;;26.52;62.94;100732.30;1698008;83;20155;-60
2021/06/28 00:41:08;;;;;;;;;;;;;;;26.48;62.98;100732.18;1696790;83;20174;-62
2021/06/28 00:43:34;;;;;;;;;;;;;;;26.48;63.01;100731.40;1705395;83;21027;-60
2021/06/28 00:46:00;;;;;;;;;;;;;;;26.49;63.06;100724.05;1694005;83;20777;-60
2021/06/28 00:48:26;;;;;;;;;;;;;;;26.51;63.13;100726.48;1687571;84;20142;-60
2021/06/28 00:50:53;;;;;;;;;;;;;;;26.52;63.21;100721.92;1687081;84;20138;-60
2021/06/28 00:53:21;;;;;;;;;;;;;;;26.54;63.29;100720.99;1683960;84;20223;-60
2021/06/28 00:55:47;;;;;;;;;;;;;;;26.60;63.32;100723.75;1685391;84;20967;-60
2021/06/28 00:58:13;;;;;;;;;;;;;;;26.63;63.36;100727.20;1684273;84;20219;-60
2021/06/28 01:00:39;;;;;;;;;;;;;;;26.67;63.38;100726.70;1676867;84;20148;-60
2021/06/28 01:03:05;;;;;;;;;;;;;;;26.72;63.40;100726.44;1678229;84;20202;-60
2021/06/28 01:05:32;;;;;;;;;;;;;;;26.77;63.38;100732.34;1691789;84;20738;-60
2021/06/28 01:08:00;;;;;;;;;;;;;;;26.80;63.35;100727.42;1687158;84;21159;-60
2021/06/28 01:10:25;;;;;;;;;;;;;;;26.84;63.35;100729.70;1675802;84;20489;-60
2021/06/28 01:12:51;;;;;;;;;;;;;;;26.87;63.31;100728.19;1688863;83;20810;-61
2021/06/28 01:15:17;;;;;;;;;;;;;;;26.89;63.29;100724.47;1689074;84;21997;-60
2021/06/28 01:17:43;;;;;;;;;;;;;;;26.89;63.19;100720.28;1688678;84;20191;-60
2021/06/28 01:20:12;;;;;;;;;;;;;;;26.86;63.14;100721.83;1683958;84;21205;-60
2021/06/28 01:22:42;;;;;;;;;;;;;;;26.83;63.08;100723.31;1691722;84;20084;-60
2021/06/28 01:25:10;;;;;;;;;;;;;;;26.79;63.06;100723.81;1689494;84;20188;-60
2021/06/28 01:27:36;;;;;;;;;;;;;;;26.76;63.06;100719.55;1689424;84;20197;-60
2021/06/28 01:30:04;;;;;;;;;;;;;;;26.71;63.08;100724.81;1742602;81;20143;-60
2021/06/28 01:32:31;;;;;;;;;;;;;;;26.67;63.09;100730.08;1742674;82;21166;-60
2021/06/28 01:34:56;;;;;;;;;;;;;;;26.63;63.12;100729.18;1739174;81;20183;-60
2021/06/28 01:37:23;;;;;;;;;;;;;;;26.59;63.15;100721.30;1742900;80;20178;-60
2021/06/28 01:39:51;;;;;;;;;;;;;;;26.56;63.18;100729.02;1742939;81;20460;-60
2021/06/28 01:42:17;;;;;;;;;;;;;;;26.52;63.25;100725.32;1738859;82;20221;-60
2021/06/28 01:44:43;;;;;;;;;;;;;;;26.48;63.26;100733.58;1739908;81;21116;-59
2021/06/28 01:47:09;;;;;;;;;;;;;;;26.45;63.31;100743.25;1727566;82;20204;-60
2021/06/28 01:49:35;;;;;;;;;;;;;;;26.41;63.35;100734.80;1737581;81;20288;-60
2021/06/28 01:52:01;;;;;;;;;;;;;;;26.38;63.41;100740.29;1736865;82;20808;-59
2021/06/28 01:54:28;;;;;;;;;;;;;;;26.35;63.43;100740.44;1740200;82;20148;-60
2021/06/28 01:56:54;;;;;;;;;;;;;;;26.32;63.49;100736.95;1737995;82;21059;-60
2021/06/28 01:59:31;;;;;;;;;;;;;;;26.29;63.51;100745.45;1735092;82;20224;-60
2021/06/28 02:01:57;;;;;;;;;;;;;;;26.27;63.56;100746.38;1738292;82;20147;-60
2021/06/28 02:04:23;;;;;;;;;;;;;;;26.26;63.59;100746.18;1735644;80;20437;-60
2021/06/28 02:06:49;;;;;;;;;;;;;;;26.26;63.60;100749.55;1731109;82;20245;-59
2021/06/28 02:09:15;;;;;;;;;;;;;;;26.26;63.68;100751.76;1715495;82;21815;-60
2021/06/28 02:11:41;;;;;;;;;;;;;;;26.28;63.76;100756.38;1739142;81;20154;-61
2021/06/28 02:14:07;;;;;;;;;;;;;;;26.32;63.81;100753.68;1747134;81;20550;-60
2021/06/28 02:16:33;;;;;;;;;;;;;;;26.34;63.86;100763.33;1749615;81;20165;-60
2021/06/28 02:18:59;;;;;;;;;;;;;;;26.38;63.90;100762.02;1734860;81;20168;-60
2021/06/28 02:21:25;;;;;;;;;;;;;;;26.43;63.93;100767.92;1736683;81;21104;-60
2021/06/28 02:23:51;;;;;;;;;;;;;;;26.48;63.90;100764.88;1736435;81;20452;-61
2021/06/28 02:26:17;;;;;;;;;;;;;;;26.51;63.90;100766.36;1735932;81;20829;-60
2021/06/28 02:28:50;;;;;;;;;;;;;;;26.55;63.90;100765.87;1737082;81;20118;-60
2021/06/28 02:31:20;;;;;;;;;;;;;;;26.58;63.89;100761.53;1735911;81;20217;-60
2021/06/28 02:33:46;;;;;;;;;;;;;;;26.59;63.86;100758.98;1731372;81;20943;-60
2021/06/28 02:36:12;;;;;;;;;;;;;;;26.63;63.82;100758.48;1732166;81;20155;-61
2021/06/28 02:38:38;;;;;;;;;;;;;;;26.62;63.76;100759.06;1737576;80;20810;-60
2021/06/28 02:41:04;;;;;;;;;;;;;;;26.60;63.72;100767.58;1755004;80;20624;-60
2021/06/28 02:43:30;;;;;;;;;;;;;;;26.57;63.68;100763.52;1756078;80;20163;-60
2021/06/28 02:45:56;;;;;;;;;;;;;;;26.53;63.64;100759.00;1749246;80;21279;-60
2021/06/28 02:48:23;;;;;;;;;;;;;;;26.50;63.63;100766.13;1748261;80;20107;-60
2021/06/28 02:50:49;;;;;;;;;;;;;;;26.46;63.65;100763.83;1748254;80;20202;-60
2021/06/28 02:53:17;;;;;;;;;;;;;;;26.42;63.66;100762.11;1743306;80;20141;-60
2021/06/28 02:55:44;;;;;;;;;;;;;;;26.40;63.69;100767.23;1748355;80;20139;-60
2021/06/28 02:58:10;;;;;;;;;;;;;;;26.36;63.71;100768.53;1754913;80;21144;-60
2021/06/28 03:00:36;;;;;;;;;;;;;;;26.32;63.74;100761.47;1751234;80;20220;-60
2021/06/28 03:03:02;;;;;;;;;;;;;;;26.30;63.77;100769.40;1749589;80;20170;-60
2021/06/28 03:05:28;;;;;;;;;;;;;;;26.26;63.79;100763.50;1752063;79;20197;-60
2021/06/28 03:07:54;;;;;;;;;;;;;;;26.24;63.83;100771.39;1750444;80;20440;-60
2021/06/28 03:10:20;;;;;;;;;;;;;;;26.21;63.86;100770.72;1745474;80;23214;-60
2021/06/28 03:12:46;;;;;;;;;;;;;;;26.18;63.91;100771.41;1752714;80;20173;-60
2021/06/28 03:15:15;;;;;;;;;;;;;;;26.15;63.94;100767.92;1746240;80;20171;-60
2021/06/28 03:17:40;;;;;;;;;;;;;;;26.14;63.97;100769.89;1749199;80;20419;-60
2021/06/28 03:20:09;;;;;;;;;;;;;;;26.12;64.00;100771.42;1747663;80;20190;-60
2021/06/28 03:22:38;;;;;;;;;;;;;;;26.10;64.01;100766.77;1748882;80;22020;-60
2021/06/28 03:25:05;;;;;;;;;;;;;;;26.10;64.04;100768.98;1751051;80;20166;-60
2021/06/28 03:27:31;;;;;;;;;;;;;;;26.12;64.08;100775.61;1756534;80;20433;-60
2021/06/28 03:29:57;;;;;;;;;;;;;;;26.13;64.12;100768.87;1753219;80;21928;-60
2021/06/28 03:32:23;;;;;;;;;;;;;;;26.13;64.18;100769.69;1757252;80;20174;-60
2021/06/28 03:34:49;;;;;;;;;;;;;;;26.18;64.24;100783.34;1750206;80;21131;-60
2021/06/28 03:37:15;;;;;;;;;;;;;;;26.21;64.28;100779.91;1747849;80;20377;-60
2021/06/28 03:39:41;;;;;;;;;;;;;;;26.25;64.30;100783.59;1732283;81;20425;-60
2021/06/28 03:42:08;;;;;;;;;;;;;;;26.30;64.30;100786.13;1728860;81;20562;-60
2021/06/28 03:44:34;;;;;;;;;;;;;;;26.35;64.29;100790.03;1735631;81;20166;-59
2021/06/28 03:46:59;;;;;;;;;;;;;;;26.40;64.28;100786.75;1725634;81;21388;-61
2021/06/28 03:49:25;;;;;;;;;;;;;;;26.44;64.25;100791.88;1729149;81;20490;-60
2021/06/28 03:51:51;;;;;;;;;;;;;;;26.46;64.24;100797.31;1721127;81;20211;-60
2021/06/28 03:54:17;;;;;;;;;;;;;;;26.47;64.17;100795.33;1716059;81;20238;-60
2021/06/28 03:56:43;;;;;;;;;;;;;;;26.48;64.14;100799.75;1731225;80;20165;-60
2021/06/28 03:59:09;;;;;;;;;;;;;;;26.48;64.09;100804.72;1698990;82;21293;-60
2021/06/28 04:01:35;;;;;;;;;;;;;;;26.47;64.05;100809.28;1722278;82;20169;-60
2021/06/28 04:04:01;;;;;;;;;;;;;;;26.45;64.00;100819.39;1724647;82;20186;-60
2021/06/28 04:06:27;;;;;;;;;;;;;;;26.43;63.98;100816.75;1724489;82;20367;-60
2021/06/28 04:08:53;;;;;;;;;;;;;;;26.40;63.99;100816.05;1696285;82;20775;-60
2021/06/28 04:11:18;;;;;;;;;;;;;;;26.37;63.98;100821.77;1730617;80;20752;-60
2021/06/28 04:13:45;;;;;;;;;;;;;;;26.34;63.99;100819.12;1723803;80;21717;-60
2021/06/28 04:16:11;;;;;;;;;;;;;;;26.31;64.00;100820.39;1765710;80;20141;-60
2021/06/28 04:18:37;;;;;;;;;;;;;;;26.28;64.00;100817.74;1769360;79;20460;-60
2021/06/28 04:21:03;;;;;;;;;;;;;;;26.25;64.01;100814.86;1755619;79;20743;-60
2021/06/28 04:23:29;;;;;;;;;;;;;;;26.23;64.06;100820.78;1758735;80;21074;-60
2021/06/28 04:25:55;;;;;;;;;;;;;;;26.20;64.06;100817.89;1757840;79;20109;-60
2021/06/28 04:28:22;;;;;;;;;;;;;;;26.18;64.10;100818.81;1758699;79;20171;-60
2021/06/28 04:30:48;;;;;;;;;;;;;;;26.15;64.12;100806.37;1759138;80;20205;-60
2021/06/28 04:33:14;;;;;;;;;;;;;;;26.12;64.16;100802.92;1759943;80;20340;-60
2021/06/28 04:35:40;;;;;;;;;;;;;;;26.11;64.16;100810.23;1759355;79;21191;-60
2021/06/28 04:38:06;;;;;;;;;;;;;;;26.09;64.19;100807.00;1757640;80;21038;-60
2021/06/28 04:40:32;;;;;;;;;;;;;;;26.08;64.20;100810.37;1736454;82;20759;-60
2021/06/28 04:42:58;;;;;;;;;;;;;;;26.08;64.21;100810.95;1727866;81;20528;-60
2021/06/28 04:45:24;;;;;;;;;;;;;;;26.09;64.22;100813.97;1731107;82;20155;-60
2021/06/28 04:47:50;;;;;;;;;;;;;;;26.11;64.27;100813.02;1732424;82;21113;-60
2021/06/28 04:50:17;;;;;;;;;;;;;;;26.12;64.32;100811.86;1730713;81;20237;-60
2021/06/28 04:52:43;;;;;;;;;;;;;;;26.15;64.37;100818.11;1718530;82;20464;-60
2021/06/28 04:55:11;;;;;;;;;;;;;;;26.20;64.44;100817.31;1719427;82;20539;-60
2021/06/28 04:57:37;;;;;;;;;;;;;;;26.24;64.42;100820.20;1718280;82;20200;-60
2021/06/28 05:00:05;;;;;;;;;;;;;;;26.28;64.42;100817.74;1738903;81;21142;-60
2021/06/28 05:02:31;;;;;;;;;;;;;;;26.33;64.41;100821.67;1739838;81;20586;-60
2021/06/28 05:04:57;;;;;;;;;;;;;;;26.40;64.40;100824.41;1741118;81;20794;-60
2021/06/28 05:07:23;;;;;;;;;;;;;;;26.44;64.38;100826.13;1737210;81;20736;-60
2021/06/28 05:09:49;;;;;;;;;;;;;;;26.48;64.34;100829.05;1735030;82;20172;-60
2021/06/28 05:12:15;;;;;;;;;;;;;;;26.51;64.28;100828.33;1732932;82;21021;-60
2021/06/28 05:14:41;;;;;;;;;;;;;;;26.53;64.24;100833.77;1736094;81;20210;-59
2021/06/28 05:17:07;;;;;;;;;;;;;;;26.53;64.16;100826.79;1736002;82;20384;-60
2021/06/28 05:19:34;;;;;;;;;;;;;;;26.53;64.12;100828.19;1733650;81;20151;-60
2021/06/28 05:22:00;;;;;;;;;;;;;;;26.52;64.08;100825.77;1732107;82;20147;-60
2021/06/28 05:24:26;;;;;;;;;;;;;;;26.49;64.02;100828.67;1733595;81;21191;-60
2021/06/28 05:26:52;;;;;;;;;;;;;;;26.48;64.05;100826.26;1728881;81;20341;-60
2021/06/28 05:29:18;;;;;;;;;;;;;;;26.45;64.02;100827.77;1735995;81;21096;-60
2021/06/28 05:31:44;;;;;;;;;;;;;;;26.42;64.01;100825.70;1736753;82;20496;-60
2021/06/28 05:34:09;;;;;;;;;;;;;;;26.38;64.01;100823.97;1735027;82;20218;-60
2021/06/28 05:36:35;;;;;;;;;;;;;;;26.34;64.04;100823.30;1733246;81;21320;-60
2021/06/28 05:39:03;;;;;;;;;;;;;;;26.32;64.03;100826.20;1734989;81;20205;-60
2021/06/28 05:41:29;;;;;;;;;;;;;;;26.30;64.07;100827.16;1730528;81;20536;-60
2021/06/28 05:43:54;;;;;;;;;;;;;;;26.27;64.10;100835.63;1731522;81;20676;-62
2021/06/28 05:46:20;;;;;;;;;;;;;;;26.25;64.14;100844.95;1734443;82;20771;-60
2021/06/28 05:48:46;;;;;;;;;;;;;;;26.24;64.16;100845.30;1733146;82;21822;-61
2021/06/28 05:51:13;;;;;;;;;;;;;;;26.24;64.16;100843.91;1735442;82;20179;-61
2021/06/28 05:53:43;;;;;;;;;;;;;;;26.20;64.17;100842.41;1733665;82;20377;-60
2021/06/28 05:56:07;;;;;;;;;;;;;;;26.19;64.20;100835.75;1737811;82;20198;-61
2021/06/28 05:58:33;;;;;;;;;;;;;;;26.18;64.14;100843.30;1735373;82;20119;-61
2021/06/28 06:01:00;;;;;;;;;;;;;;;26.16;64.07;100842.86;1731165;82;21963;-60
2021/06/28 06:03:27;;;;;;;;;;;;;;;26.15;64.00;100839.84;1734627;81;20245;-61
2021/06/28 06:05:53;;;;;;;;;;;;;;;26.14;63.93;100846.58;1733953;82;20182;-62
2021/06/28 06:08:23;;;;;;;;;;;;;;;26.12;63.85;100855.89;1731988;82;20162;-60
2021/06/28 06:10:48;;;;;;;;;;;;;;;26.13;63.79;100863.69;1733914;82;20193;-61
2021/06/28 06:13:14;;;;;;;;;;;;;;;26.12;63.74;100861.47;1736633;82;21220;-60
2021/06/28 06:15:40;;;;;;;;;;;;;;;26.11;63.70;100866.00;1739258;82;21060;-61
2021/06/28 06:18:06;;;;;;;;;;;;;;;26.11;63.62;100860.42;1740364;82;20196;-61
2021/06/28 06:20:32;;;;;;;;;;;;;;;26.12;63.56;100860.08;1739554;81;20220;-60
2021/06/28 06:22:58;;;;;;;;;;;;;;;26.15;63.52;100862.73;1736561;81;20778;-62
2021/06/28 06:25:24;;;;;;;;;;;;;;;26.17;63.52;100869.59;1732894;81;21803;-61
2021/06/28 06:27:49;;;;;;;;;;;;;;;26.21;63.51;100867.75;1730543;81;20544;-61
2021/06/28 06:30:16;;;;;;;;;;;;;;;26.28;63.49;100865.16;1733384;81;20233;-60
2021/06/28 06:32:42;;;;;;;;;;;;;;;26.33;63.43;100871.06;1730536;82;20273;-61
2021/06/28 06:35:09;;;;;;;;;;;;;;;26.39;63.38;100865.47;1735424;82;20174;-61
2021/06/28 06:37:35;;;;;;;;;;;;;;;26.46;63.29;100872.64;1734216;81;21090;-61
2021/06/28 06:40:01;;;;;;;;;;;;;;;26.52;63.21;100873.20;1737139;81;20157;-60
2021/06/28 06:42:26;;;;;;;;;;;;;;;26.57;63.16;100872.92;1736853;82;20181;-60
2021/06/28 06:44:52;;;;;;;;;;;;;;;26.62;63.05;100880.45;1733393;82;20151;-61
2021/06/28 06:47:20;;;;;;;;;;;;;;;26.65;62.94;100878.34;1730265;82;20185;-61
2021/06/28 06:49:46;;;;;;;;;;;;;;;26.68;62.81;100880.44;1736044;82;21990;-60
2021/06/28 06:52:12;;;;;;;;;;;;;;;26.71;62.68;100881.69;1749464;80;21581;-60
2021/06/28 06:54:39;;;;;;;;;;;;;;;26.72;62.56;100888.91;1745371;80;20154;-61
2021/06/28 06:57:06;;;;;;;;;;;;;;;26.73;62.45;100884.95;1748085;80;20225;-61
2021/06/28 06:59:33;;;;;;;;;;;;;;;26.72;62.38;100884.72;1746678;80;20420;-61
2021/06/28 07:01:59;;;;;;;;;;;;;;;26.70;62.32;100881.45;1747664;80;20299;-60
2021/06/28 07:04:25;;;;;;;;;;;;;;;26.69;62.24;100872.88;1717580;82;20219;-62
2021/06/28 07:06:51;;;;;;;;;;;;;;;26.67;62.23;100869.04;1733655;81;20245;-61
2021/06/28 07:09:17;;;;;;;;;;;;;;;26.66;62.23;100875.78;1749715;81;20681;-60
2021/06/28 07:11:43;;;;;;;;;;;;;;;26.65;62.21;100881.74;1747584;81;20240;-60
2021/06/28 07:14:09;;;;;;;;;;;;;;;26.65;62.25;100887.33;1752596;81;21116;-61
2021/06/28 07:16:35;;;;;;;;;;;;;;;26.65;62.23;100895.70;1748761;81;20225;-60
2021/06/28 07:19:03;;;;;;;;;;;;;;;26.64;62.21;100893.48;1754275;81;20726;-60
2021/06/28 07:21:29;;;;;;;;;;;;;;;26.64;62.18;100903.83;1750319;81;20186;-60
2021/06/28 07:23:56;;;;;;;;;;;;;;;26.63;62.18;100900.80;1748440;81;21265;-60
2021/06/28 07:26:24;;;;;;;;;;;;;;;26.62;62.18;100898.59;1751152;81;21939;-60
2021/06/28 07:28:50;;;;;;;;;;;;;;;26.61;62.19;100895.57;1746354;81;20436;-60
2021/06/28 07:31:16;;;;;;;;;;;;;;;26.61;62.21;100905.92;1748537;81;20146;-60
2021/06/28 07:33:42;;;;;;;;;;;;;;;26.58;62.22;100913.61;1750836;81;20500;-60
2021/06/28 07:36:08;;;;;;;;;;;;;;;26.56;62.25;100925.73;1745984;80;20249;-60
2021/06/28 07:38:34;;;;;;;;;;;;;;;26.54;62.26;100933.62;1750853;81;21067;-60
2021/06/28 07:41:00;;;;;;;;;;;;;;;26.51;62.28;100937.14;1724155;82;20385;-60
2021/06/28 07:43:26;;;;;;;;;;;;;;;26.48;62.30;100937.86;1701328;83;20742;-60
2021/06/28 07:45:54;;;;;;;;;;;;;;;26.46;62.34;100938.78;1712716;82;20193;-60
2021/06/28 07:48:20;;;;;;;;;;;;;;;26.44;62.33;100949.50;1702786;82;20140;-60
2021/06/28 07:50:46;;;;;;;;;;;;;;;26.42;62.35;100939.27;1704895;82;21191;-60
2021/06/28 07:53:12;;;;;;;;;;;;;;;26.41;62.34;100934.84;1704978;82;20284;-60
2021/06/28 07:55:38;;;;;;;;;;;;;;;26.40;62.35;100931.81;1703641;82;20217;-60
2021/06/28 07:58:04;;;;;;;;;;;;;;;26.41;62.34;100928.69;1714643;82;20189;-59
2021/06/28 08:00:30;;;;;;;;;;;;;;;26.43;62.34;100925.55;1706741;82;20273;-59
2021/06/28 08:02:56;;;;;;;;;;;;;;;26.45;62.36;100930.17;1709222;82;21229;-60
2021/06/28 08:05:22;;;;;;;;;;;;;;;26.48;62.36;100931.67;1704296;82;20268;-60
2021/06/28 08:07:48;;;;;;;;;;;;;;;26.52;62.41;100936.77;1722938;82;20755;-59
2021/06/28 08:10:14;;;;;;;;;;;;;;;26.58;62.43;100940.12;1728416;82;20744;-59
2021/06/28 08:12:44;;;;;;;;;;;;;;;26.64;62.43;100935.92;1779498;79;20150;-59
2021/06/28 08:15:10;;;;;;;;;;;;;;;26.68;62.46;100932.66;1778583;79;21169;-60
2021/06/28 08:17:37;;;;;;;;;;;;;;;26.73;62.44;100933.19;1764026;79;20437;-59
2021/06/28 08:20:05;;;;;;;;;;;;;;;26.79;62.43;100932.35;1764790;80;20382;-60
2021/06/28 08:22:31;;;;;;;;;;;;;;;26.84;62.43;100926.52;1729474;81;20171;-59
2021/06/28 08:24:56;;;;;;;;;;;;;;;26.88;62.43;100921.05;1699409;83;20164;-62
2021/06/28 08:27:22;;;;;;;;;;;;;;;26.91;62.37;100920.33;1730002;81;21208;-61
2021/06/28 08:29:49;;;;;;;;;;;;;;;26.92;62.33;100914.40;1726564;81;20171;-61
2021/06/28 08:32:15;;;;;;;;;;;;;;;26.93;62.28;100911.84;1732890;81;20097;-62
2021/06/28 08:34:41;;;;;;;;;;;;;;;26.93;62.22;100910.45;1692977;83;20540;-62
2021/06/28 08:37:07;;;;;;;;;;;;;;;26.92;62.19;100908.81;1715495;82;20190;-61
2021/06/28 08:39:32;;;;;;;;;;;;;;;26.91;62.16;100914.75;1717968;81;21169;-62
2021/06/28 08:41:58;;;;;;;;;;;;;;;26.89;62.13;100912.33;1724280;81;20783;-60
2021/06/28 08:44:24;;;;;;;;;;;;;;;26.88;62.12;100915.47;1703125;81;20195;-61
2021/06/28 08:46:50;;;;;;;;;;;;;;;26.85;62.10;100914.22;1726891;81;21932;-61
2021/06/28 08:49:16;;;;;;;;;;;;;;;26.82;62.12;100910.11;1726584;81;20201;-61
2021/06/28 08:51:43;;;;;;;;;;;;;;;26.79;62.11;100901.06;1727515;81;21389;-62
2021/06/28 08:54:10;;;;;;;;;;;;;;;26.79;62.11;100905.83;1731627;81;20268;-61
2021/06/28 08:56:41;;;;;;;;;;;;;;;26.76;62.14;100908.77;1783371;79;20170;-61
2021/06/28 08:59:07;;;;;;;;;;;;;;;26.76;62.16;100907.95;1772334;79;20192;-61
2021/06/28 09:01:34;;;;;;;;;;;;;;;26.75;62.17;100902.13;1768737;79;20207;-61
2021/06/28 09:04:00;;;;;;;;;;;;;;;26.75;62.20;100903.53;1770951;79;22075;-62
2021/06/28 09:06:27;;;;;;;;;;;;;;;26.75;62.19;100899.34;1760612;79;20143;-61
2021/06/28 09:09:01;;;;;;;;;;;;;;;26.73;62.21;100901.70;1766416;79;20415;-61
2021/06/28 09:11:27;;;;;;;;;;;;;;;26.71;62.20;100896.46;1771065;79;20213;-61
2021/06/28 09:13:55;;;;;;;;;;;;;;;26.70;62.26;100900.41;1767993;79;20180;-61
2021/06/28 09:16:28;;;;;;;;;;;;;;;26.69;62.28;100886.83;1767214;79;22014;-61
2021/06/28 09:19:04;;;;;;;;;;;;;;;26.68;62.29;100893.58;1771044;79;20425;-61
2021/06/28 09:21:51;;;;;;;;;;;;;;;26.67;62.32;100894.73;1772216;79;20189;-61
2021/06/28 09:24:43;;;;;;;;;;;;;;;26.67;62.33;100894.73;1770758;79;20465;-61
2021/06/28 09:27:14;;;;;;;;;;;;;;;26.66;62.35;100894.50;1768604;79;20148;-61
2021/06/28 09:29:45;;;;;;;;;;;;;;;26.66;62.34;100895.32;1768084;79;23371;-62
2021/06/28 09:32:15;;;;;;;;;;;;;;;26.68;62.38;100893.00;1767528;79;20624;-62
2021/06/28 09:34:42;;;;;;;;;;;;;;;26.71;62.43;100895.06;1745889;81;20140;-62
2021/06/28 09:37:14;;;;;;;;;;;;;;;26.73;62.47;100892.71;1737202;82;20737;-62
2021/06/28 09:39:42;;;;;;;;;;;;;;;26.78;62.51;100889.66;1737601;81;20167;-62
2021/06/28 09:42:11;;;;;;;;;;;;;;;26.84;62.54;100890.22;1733382;81;21198;-63
2021/06/28 09:44:43;;;;;;;;;;;;;;;26.89;62.54;100884.41;1768919;79;20442;-62
2021/06/28 09:47:12;;;;;;;;;;;;;;;26.94;62.53;100889.73;1771796;79;20434;-62
2021/06/28 09:49:40;;;;;;;;;;;;;;;26.97;62.51;100889.02;1735677;81;20140;-62
2021/06/28 09:52:06;;;;;;;;;;;;;;;27.01;62.50;100884.33;1734982;82;20472;-62
2021/06/28 09:54:34;;;;;;;;;;;;;;;27.02;62.48;100887.35;1728507;82;20354;-62
2021/06/28 09:57:00;;;;;;;;;;;;;;;27.05;62.47;100887.20;1773558;79;20155;-62
2021/06/28 09:59:32;;;;;;;;;;;;;;;27.04;62.44;100886.39;1771290;79;20765;-62
2021/06/28 10:02:31;;;;;;;;;;;;;;;27.05;62.40;100890.81;1771264;79;20491;-63
2021/06/28 10:05:14;;;;;;;;;;;;;;;27.04;62.36;100886.39;1757954;80;20160;-62
2021/06/28 10:07:35;;;;;;;;;;;;;;;27.04;62.32;100882.78;1764281;80;21084;-63
2021/06/28 10:10:07;;;;;;;;;;;;;;;27.01;62.32;100875.14;1764275;79;20154;-63
2021/06/28 10:12:33;;;;;;;;;;;;;;;26.99;62.30;100879.67;1763980;79;20075;-63
2021/06/28 10:14:59;;;;;;;;;;;;;;;26.98;62.29;100876.68;1774018;79;21910;-63
2021/06/28 10:17:25;;;;;;;;;;;;;;;26.95;62.27;100870.98;1769450;79;20144;-63
2021/06/28 10:19:51;;;;;;;;;;;;;;;26.94;62.31;100870.77;1766852;79;21163;-63
2021/06/28 10:22:17;;;;;;;;;;;;;;;26.92;62.30;100864.14;1741644;80;20786;-62
2021/06/28 10:24:43;;;;;;;;;;;;;;;26.91;62.35;100867.28;1768253;79;20148;-63
2021/06/28 10:27:09;;;;;;;;;;;;;;;26.89;62.35;100862.08;1741428;81;20167;-62
2021/06/28 10:29:35;;;;;;;;;;;;;;;26.88;62.36;100863.82;1766388;79;20182;-61
2021/06/28 10:32:09;;;;;;;;;;;;;;;26.86;62.38;100863.39;1776987;80;21223;-61
2021/06/28 10:34:35;;;;;;;;;;;;;;;26.83;62.41;100858.70;1737437;81;20160;-61
2021/06/28 10:37:03;;;;;;;;;;;;;;;26.83;62.42;100859.28;1731711;82;20136;-62
2021/06/28 10:39:30;;;;;;;;;;;;;;;26.80;62.44;100848.84;1730637;81;20560;-62
2021/06/28 10:41:58;;;;;;;;;;;;;;;26.80;62.47;100846.05;1766862;79;20168;-62
2021/06/28 10:44:24;;;;;;;;;;;;;;;26.78;62.50;100845.58;1744375;80;21151;-62
2021/06/28 10:46:52;;;;;;;;;;;;;;;26.78;62.52;100844.19;1734955;80;20190;-62
2021/06/28 10:49:43;;;;;;;;;;;;;;;26.77;62.56;100846.78;1726588;82;20144;-62
2021/06/28 10:52:09;;;;;;;;;;;;;;;26.77;62.58;100846.78;1726073;82;20149;-62
2021/06/28 10:54:37;;;;;;;;;;;;;;;26.76;62.59;100837.59;1727679;82;20233;-63
2021/06/28 10:57:03;;;;;;;;;;;;;;;26.79;62.59;100844.42;1735996;82;21028;-62
2021/06/28 10:59:44;;;;;;;;;;;;;;;26.81;62.58;100839.30;1731912;82;20186;-62
2021/06/28 11:02:11;;;;;;;;;;;;;;;26.85;62.62;100836.05;1729399;82;20146;-62
2021/06/28 11:04:39;;;;;;;;;;;;;;;26.88;62.65;100835.32;1736322;82;20107;-62
2021/06/28 11:07:10;;;;;;;;;;;;;;;26.93;62.68;100838.44;1725981;81;20132;-62
2021/06/28 11:09:46;;;;;;;;;;;;;;;26.98;62.70;100838.17;1730313;81;22385;-62
2021/06/28 11:12:35;;;;;;;;;;;;;;;27.03;62.68;100832.32;1731055;80;20186;-62
2021/06/28 11:15:23;;;;;;;;;;;;;;;27.10;62.66;100827.72;1704741;82;20201;-62
2021/06/28 11:17:51;;;;;;;;;;;;;;;27.17;62.62;100832.66;1697066;83;20135;-62
2021/06/28 11:20:34;;;;;;;;;;;;;;;27.25;62.56;100826.06;1764607;79;20129;-62
2021/06/28 11:23:07;;;;;;;;;;;;;;;27.28;62.52;100819.16;1758578;80;21831;-63
2021/06/28 11:25:49;;;;;;;;;;;;;;;27.33;62.43;100825.67;1760870;80;20349;-62
2021/06/28 11:28:25;;;;;;;;;;;;;;;27.35;62.34;100817.72;1766176;80;20177;-62
2021/06/28 11:31:00;;;;;;;;;;;;;;;27.36;62.22;100813.76;1768062;80;20455;-61
2021/06/28 11:33:39;;;;;;;;;;;;;;;27.35;62.17;100813.53;1764076;79;20182;-61
2021/06/28 11:36:17;;;;;;;;;;;;;;;27.33;62.13;100808.30;1752661;80;21115;-62
2021/06/28 11:38:43;;;;;;;;;;;;;;;27.32;62.11;100812.87;1699846;81;20195;-62
2021/06/28 11:41:14;;;;;;;;;;;;;;;27.29;62.09;100811.59;1733424;81;20167;-61
2021/06/28 11:43:44;;;;;;;;;;;;;;;27.28;62.15;100803.01;1769296;80;20455;-61
2021/06/28 11:46:12;;;;;;;;;;;;;;;27.28;62.14;100802.40;1753638;80;20137;-61
2021/06/28 11:48:48;;;;;;;;;;;;;;;27.30;62.12;100795.06;1761841;80;21061;-61
2021/06/28 11:51:18;;;;;;;;;;;;;;;27.30;62.11;100790.88;1762009;80;20529;-61
2021/06/28 11:53:58;;;;;;;;;;;;;;;27.29;62.08;100789.24;1761404;80;20079;-60
2021/06/28 11:56:29;;;;;;;;;;;;;;;27.30;62.08;100791.45;1758054;80;21923;-62
2021/06/28 11:59:04;;;;;;;;;;;;;;;27.29;62.06;100787.84;1761167;80;20200;-62
2021/06/28 12:01:36;;;;;;;;;;;;;;;27.30;62.03;100779.70;1759219;79;21860;-61
2021/06/28 12:04:03;;;;;;;;;;;;;;;27.30;62.03;100782.48;1757540;80;20252;-62
2021/06/28 12:06:32;;;;;;;;;;;;;;;27.28;62.01;100782.84;1759209;80;20469;-62
2021/06/28 12:09:10;;;;;;;;;;;;;;;27.28;62.01;100780.05;1757549;80;20153;-62
2021/06/28 12:11:57;;;;;;;;;;;;;;;27.30;62.01;100788.08;1760142;80;20437;-59
2021/06/28 12:14:42;;;;;;;;;;;;;;;27.30;61.98;100781.09;1765404;80;21969;-62
2021/06/28 12:17:13;;;;;;;;;;;;;;;27.28;61.88;100787.03;1765074;80;20147;-62
2021/06/28 12:19:41;;;;;;;;;;;;;;;27.26;61.76;100776.02;1762710;80;20227;-62
2021/06/28 12:22:12;;;;;;;;;;;;;;;27.24;61.69;100779.77;1764209;80;20167;-62
2021/06/28 12:24:38;;;;;;;;;;;;;;;27.22;61.59;100779.31;1758991;80;20156;-62
2021/06/28 12:27:09;;;;;;;;;;;;;;;27.19;61.54;100778.06;1728093;80;21156;-62
2021/06/28 12:29:41;;;;;;;;;;;;;;;27.18;61.48;100765.85;1716315;82;20172;-61
2021/06/28 12:32:13;;;;;;;;;;;;;;;27.16;61.38;100764.80;1732840;80;20410;-62
2021/06/28 12:34:39;;;;;;;;;;;;;;;27.15;61.32;100770.77;1714641;82;20146;-62
2021/06/28 12:37:06;;;;;;;;;;;;;;;27.13;61.26;100774.50;1767008;80;20445;-61
2021/06/28 12:39:32;;;;;;;;;;;;;;;27.13;61.16;100771.70;1726981;81;21933;-62